createdAt,value
2023-03-07T00:04:36.761Z,2.58
2023-03-07T00:09:40.859Z,2.55
2023-03-07T00:14:43.609Z,2.57
2023-03-07T00:19:47.157Z,2.53
2023-03-07T00:24:51.242Z,2.56
2023-03-07T00:29:53.980Z,2.55
2023-03-07T00:34:57.080Z,2.50
2023-03-07T00:40:01.204Z,2.49
2023-03-07T00:45:04.177Z,2.52
2023-03-07T00:50:07.649Z,2.53
2023-03-07T00:55:12.058Z,2.57
2023-03-07T01:00:16.121Z,2.57
2023-03-07T01:05:18.901Z,2.60
2023-03-07T01:10:23.150Z,2.63
2023-03-07T01:15:26.023Z,2.60
2023-03-07T01:20:31.724Z,2.62
2023-03-07T01:25:40.260Z,2.62
2023-03-07T01:30:43.618Z,2.66
2023-03-07T01:35:46.631Z,2.66
2023-03-07T01:40:51.274Z,2.66
2023-03-07T01:46:27.414Z,2.66
2023-03-07T01:51:32.404Z,2.60
2023-03-07T01:56:40.116Z,2.60
2023-03-07T02:01:44.022Z,2.60
2023-03-07T02:06:46.808Z,2.55
2023-03-07T02:11:51.425Z,2.51
2023-03-07T02:16:54.727Z,2.53
2023-03-07T02:22:05.730Z,2.52
2023-03-07T02:27:09.838Z,2.46
2023-03-07T02:32:15.571Z,2.53
2023-03-07T02:37:21.276Z,2.55
2023-03-07T02:42:28.814Z,2.57
2023-03-07T02:47:38.567Z,2.55
2023-03-07T02:52:42.241Z,2.55
2023-03-07T02:57:46.862Z,2.57
2023-03-07T03:02:49.753Z,2.60
2023-03-07T03:07:55.505Z,2.59
2023-03-07T03:13:00.924Z,2.68
2023-03-07T03:18:03.824Z,2.70
2023-03-07T03:23:06.650Z,2.73
2023-03-07T03:28:13.330Z,2.76
2023-03-07T03:33:16.190Z,2.80
2023-03-07T03:38:19.077Z,2.82
2023-03-07T03:43:23.842Z,2.87
2023-03-07T03:48:27.268Z,2.88
2023-03-07T03:53:31.125Z,2.92
2023-03-07T03:58:36.733Z,2.92
2023-03-07T04:03:41.104Z,2.89
2023-03-07T04:08:44.293Z,2.91
2023-03-07T04:13:49.266Z,2.91
2023-03-07T04:18:52.622Z,2.93
2023-03-07T04:23:57.161Z,2.86
2023-03-07T04:29:04.240Z,2.86
2023-03-07T04:34:18.489Z,2.86
2023-03-07T04:39:21.474Z,2.86
2023-03-07T04:44:25.851Z,2.81
2023-03-07T04:49:28.688Z,2.85
2023-03-07T04:54:31.677Z,2.80
2023-03-07T04:59:39.227Z,2.83
2023-03-07T05:04:42.760Z,2.77
2023-03-07T05:09:45.794Z,2.80
2023-03-07T05:14:50.218Z,2.75
2023-03-07T05:19:53.087Z,2.74
2023-03-07T05:24:56.073Z,2.73
2023-03-07T05:30:00.515Z,2.71
2023-03-07T05:35:03.654Z,2.72
2023-03-07T05:40:10.958Z,2.69
2023-03-07T05:45:18.634Z,2.63
2023-03-07T05:50:22.278Z,2.61
2023-03-07T05:55:25.250Z,2.59
2023-03-07T06:00:29.851Z,2.61
2023-03-07T06:05:35.956Z,2.57
2023-03-07T06:10:40.824Z,2.60
2023-03-07T06:15:49.949Z,2.73
2023-03-07T06:20:58.660Z,2.58
2023-03-07T06:26:03.745Z,2.56
2023-03-07T06:31:10.673Z,2.56
2023-03-07T06:36:16.039Z,2.59
2023-03-07T06:41:21.456Z,2.62
2023-03-07T06:46:26.442Z,2.72
2023-03-07T06:51:29.842Z,2.70
2023-03-07T06:56:35.171Z,2.76
2023-03-07T07:01:39.878Z,2.81
2023-03-07T07:06:42.826Z,2.86
2023-03-07T07:11:45.962Z,2.87
2023-03-07T07:16:50.625Z,2.82
2023-03-07T07:21:53.781Z,2.81
2023-03-07T07:26:56.857Z,2.82
2023-03-07T07:32:01.162Z,2.75
2023-03-07T07:37:04.693Z,2.73
2023-03-07T07:42:07.752Z,2.69
2023-03-07T07:47:23.726Z,2.68
2023-03-07T07:52:26.578Z,2.66
2023-03-07T07:57:29.414Z,2.49
2023-03-07T08:02:37.783Z,1.96
2023-03-07T08:07:40.612Z,1.92
2023-03-07T08:12:43.986Z,1.84
2023-03-07T08:17:48.116Z,1.62
2023-03-07T08:22:52.755Z,1.63
2023-03-07T08:27:55.985Z,1.51
2023-03-07T08:33:00.540Z,1.42
2023-03-07T08:38:03.456Z,1.16
2023-03-07T08:43:07.442Z,1.10
2023-03-07T08:48:11.674Z,1.06
2023-03-07T08:53:14.643Z,0.94
2023-03-07T08:58:17.480Z,0.92
2023-03-07T09:03:21.626Z,0.84
2023-03-07T09:08:24.430Z,0.62
2023-03-07T09:13:27.279Z,0.73
2023-03-07T09:18:31.786Z,0.76
2023-03-07T09:23:34.802Z,0.78
2023-03-07T09:28:37.578Z,0.74
2023-03-07T09:33:42.499Z,1.00
2023-03-07T09:38:45.405Z,1.17
2023-03-07T09:43:52.537Z,1.18
2023-03-07T09:49:28.872Z,1.14
2023-03-07T09:54:40.144Z,1.07
2023-03-07T09:59:44.764Z,0.86
2023-03-07T10:04:52.930Z,0.95
2023-03-07T10:09:59.591Z,1.04
2023-03-07T10:15:09.642Z,0.90
2023-03-07T10:20:22.302Z,0.94
2023-03-07T10:25:29.015Z,0.94
2023-03-07T10:30:32.834Z,0.87
2023-03-07T10:35:42.263Z,1.02
2023-03-07T10:40:48.753Z,1.05
2023-03-07T10:45:55.171Z,1.00
2023-03-07T10:51:04.313Z,1.07
2023-03-07T10:56:12.965Z,1.00
2023-03-07T11:01:19.402Z,0.98
2023-03-07T11:06:30.901Z,0.97
2023-03-07T11:11:33.725Z,0.98
2023-03-07T11:16:42.078Z,0.96
2023-03-07T11:21:53.848Z,0.93
2023-03-07T11:27:02.318Z,1.08
2023-03-07T11:32:15.969Z,1.06
2023-03-07T11:37:38.680Z,1.05
2023-03-07T11:42:46.387Z,0.85
2023-03-07T11:47:53.559Z,1.00
2023-03-07T11:53:06.884Z,0.85
2023-03-07T11:58:21.268Z,0.80
2023-03-07T12:03:56.551Z,0.86
2023-03-07T12:09:07.323Z,0.88
2023-03-07T12:14:18.410Z,0.94
2023-03-07T12:19:42.284Z,0.94
2023-03-07T12:24:55.610Z,1.01
2023-03-07T12:30:00.918Z,1.06
2023-03-07T12:35:08.410Z,0.94
2023-03-07T12:40:18.556Z,0.96
2023-03-07T12:45:24.372Z,1.06
2023-03-07T12:50:33.106Z,1.03
2023-03-07T12:55:47.578Z,1.10
2023-03-07T13:00:54.498Z,1.15
2023-03-07T13:05:57.489Z,1.09
2023-03-07T13:11:01.666Z,1.11
2023-03-07T13:16:08.149Z,1.07
2023-03-07T13:21:15.794Z,1.09
2023-03-07T13:26:25.651Z,1.19
2023-03-07T13:31:43.983Z,1.20
2023-03-07T13:36:46.917Z,1.41
2023-03-07T13:41:52.106Z,1.26
2023-03-07T13:46:58.764Z,1.20
2023-03-07T13:52:38.830Z,1.39
2023-03-07T13:57:44.714Z,1.49
2023-03-07T14:02:49.547Z,1.52
2023-03-07T14:07:53.306Z,1.61
2023-03-07T14:13:13.688Z,1.44
2023-03-07T14:18:25.240Z,1.60
2023-03-07T14:23:50.550Z,1.82
2023-03-07T14:29:03.271Z,1.70
2023-03-07T14:34:17.527Z,1.99
2023-03-07T14:39:21.805Z,1.87
2023-03-07T14:44:54.379Z,1.89
2023-03-07T14:50:06.770Z,1.61
2023-03-07T14:55:16.979Z,1.68
2023-03-07T15:00:25.146Z,1.83
2023-03-07T15:05:31.010Z,1.79
2023-03-07T15:10:36.745Z,1.90
2023-03-07T15:15:43.085Z,1.89
2023-03-07T15:20:50.489Z,1.95
2023-03-07T15:25:58.487Z,1.90
2023-03-07T15:31:01.936Z,1.83
2023-03-07T15:36:25.958Z,1.91
2023-03-07T15:41:31.662Z,1.96
2023-03-07T15:46:36.006Z,1.91
2023-03-07T15:51:40.141Z,1.97
2023-03-07T15:56:45.337Z,1.86
2023-03-07T16:01:48.197Z,2.00
2023-03-07T16:06:52.600Z,1.93
2023-03-07T16:11:55.657Z,1.83
2023-03-07T16:17:00.477Z,1.91
2023-03-07T16:22:05.406Z,1.84
2023-03-07T16:27:16.255Z,1.82
2023-03-07T16:32:21.207Z,1.69
2023-03-07T16:37:25.805Z,1.76
2023-03-07T16:42:28.519Z,1.83
2023-03-07T16:47:31.482Z,1.69
2023-03-07T16:52:35.546Z,1.62
2023-03-07T16:57:38.632Z,0.56
2023-03-07T17:02:41.388Z,0.36
2023-03-07T17:07:45.803Z,0.36
2023-03-07T17:12:49.314Z,0.38
2023-03-07T17:17:52.066Z,0.29
2023-03-07T17:22:56.253Z,0.38
2023-03-07T17:28:02.286Z,0.22
2023-03-07T17:33:05.251Z,0.30
2023-03-07T17:38:12.068Z,0.13
2023-03-07T17:43:14.851Z,0.06
2023-03-07T17:48:17.555Z,0.11
2023-03-07T17:53:21.628Z,-0.01
2023-03-07T17:58:24.372Z,0.05
2023-03-07T18:03:27.058Z,0.03
2023-03-07T18:08:31.401Z,0.03
2023-03-07T18:13:34.325Z,0.09
2023-03-07T18:18:40.197Z,0.20
2023-03-07T18:23:47.435Z,0.29
2023-03-07T18:28:53.176Z,0.14
2023-03-07T18:33:56.111Z,0.20
2023-03-07T18:39:03.143Z,0.22
2023-03-07T18:44:10.197Z,0.38
2023-03-07T18:49:13.532Z,0.32
2023-03-07T18:54:17.829Z,0.32
2023-03-07T18:59:23.391Z,0.36
2023-03-07T19:04:26.140Z,0.31
2023-03-07T19:09:31.271Z,0.35
2023-03-07T19:14:34.013Z,0.37
2023-03-07T19:19:36.901Z,0.26
2023-03-07T19:24:41.219Z,0.21
2023-03-07T19:29:43.976Z,0.24
2023-03-07T19:34:49.822Z,0.21
2023-03-07T19:39:54.388Z,0.23
2023-03-07T19:44:57.130Z,0.31
2023-03-07T19:50:00.201Z,0.35
2023-03-07T19:55:04.571Z,0.38
2023-03-07T20:00:08.718Z,0.34
2023-03-07T20:05:14.467Z,0.29
2023-03-07T20:10:19.070Z,0.35
2023-03-07T20:15:21.792Z,0.23
2023-03-07T20:20:24.575Z,0.23
2023-03-07T20:25:31.045Z,0.38
2023-03-07T20:30:33.897Z,0.27
2023-03-07T20:35:36.709Z,0.25
2023-03-07T20:40:40.838Z,0.37
2023-03-07T20:45:43.592Z,0.35
2023-03-07T20:50:46.353Z,0.39
2023-03-07T20:55:50.448Z,0.38
2023-03-07T21:00:53.723Z,0.46
2023-03-07T21:05:57.489Z,0.45
2023-03-07T21:11:02.141Z,0.42
2023-03-07T21:16:07.321Z,0.40
2023-03-07T21:21:12.425Z,0.41
2023-03-07T21:26:21.137Z,0.44
2023-03-07T21:31:25.132Z,0.39
2023-03-07T21:36:29.252Z,0.41
2023-03-07T21:41:33.348Z,0.40
2023-03-07T21:46:36.101Z,0.37
2023-03-07T21:51:38.825Z,0.46
2023-03-07T21:56:42.894Z,0.43
2023-03-07T22:01:45.620Z,0.47
2023-03-07T22:06:48.579Z,0.49
2023-03-07T22:11:52.725Z,0.55
2023-03-07T22:16:55.565Z,0.46
2023-03-07T22:21:58.338Z,0.35
2023-03-07T22:27:02.462Z,0.39
2023-03-07T22:32:05.954Z,0.38
2023-03-07T22:37:08.748Z,0.53
2023-03-07T22:42:12.814Z,0.48
2023-03-07T22:47:15.530Z,0.47
2023-03-07T22:52:19.333Z,0.44
2023-03-07T22:57:23.484Z,0.43
2023-03-07T23:02:26.212Z,0.42
2023-03-07T23:07:28.947Z,0.38
2023-03-07T23:12:33.022Z,0.44
2023-03-07T23:17:36.369Z,0.38
2023-03-07T23:22:40.755Z,0.45
2023-03-07T23:27:44.938Z,0.36
2023-03-07T23:32:47.847Z,0.40
2023-03-07T23:37:50.562Z,0.41
2023-03-07T23:42:56.443Z,0.32
2023-03-07T23:47:59.120Z,0.35
2023-03-07T23:53:01.851Z,0.39
2023-03-07T23:58:05.913Z,0.34
